Terminal Aerodrome Forecast
Issued by NWS

Home | Current Version | Previous Version | Graphics & Text | Print | Product List | Glossary On
Versions: 1 2 3 4 5 6 7 8 9 10 11 12 13 14 15 16 17 18 19 20
000
FTUS43 KIWX 240941 AAA
TAFSBN
TAF AMD
KSBN 240941Z 2410/2506 17010KT P6SM BKN025
     FM241300 19012G20KT P6SM SCT020 BKN040
      TEMPO 2414/2418 3SM SHRA BR OVC020
     FM241800 19012G20KT P6SM BKN035
     FM250000 20010KT P6SM BKN050=

USA.gov is the U.S. government's official web portal to all federal, state and local government web resources and services.